Time;durP1;ratioP1;P1;durP2;ratioP2;P2;SDS_P1;SDS_P2;PMS_P1;PMS_P2;Temp;Humidity;BMP_temperature;BMP_pressure;BME280_temperature;BME280_humidity;BME280_pressure;Samples;Min_cycle;Max_cycle;Signal;HPM_P1;HPM_P2
2021/04/08 00:02:18;;;;;;;8.32;1.35;;;;;;;5.91;59.64;100990.88;5014593;28;20262;-47
2021/04/08 00:04:45;;;;;;;12.02;2.33;;;;;;;6.11;59.04;100989.63;5013269;28;20234;-44
2021/04/08 00:07:12;;;;;;;11.95;2.10;;;;;;;6.27;58.42;100998.25;5014148;28;20245;-45
2021/04/08 00:09:38;;;;;;;13.75;2.67;;;;;;;6.40;58.19;101002.50;5013020;28;20250;-46
2021/04/08 00:12:06;;;;;;;7.43;1.85;;;;;;;6.46;57.74;100987.50;5013776;28;20223;-45
2021/04/08 00:14:32;;;;;;;18.23;3.10;;;;;;;6.35;57.60;100994.50;5013000;28;20271;-47
2021/04/08 00:16:59;;;;;;;25.40;2.30;;;;;;;6.38;57.52;100999.84;5014182;28;20461;-46
2021/04/08 00:19:27;;;;;;;21.30;4.00;;;;;;;6.31;57.91;100998.53;5013214;28;20238;-46
2021/04/08 00:21:53;;;;;;;21.37;3.00;;;;;;;6.30;57.99;101001.91;5014072;28;20233;-44
2021/04/08 00:24:20;;;;;;;14.27;3.00;;;;;;;6.49;57.74;101008.19;5012938;28;20564;-46
2021/04/08 00:26:46;;;;;;;20.88;3.30;;;;;;;6.56;57.42;101015.47;5014526;28;20290;-44
2021/04/08 00:29:13;;;;;;;18.10;2.53;;;;;;;6.27;58.25;101011.97;5013008;28;20243;-45
2021/04/08 00:31:40;;;;;;;10.85;2.30;;;;;;;6.06;58.81;101011.50;5013912;28;20483;-45
2021/04/08 00:34:09;;;;;;;9.65;2.45;;;;;;;6.14;58.58;101005.19;5013014;28;20242;-44
2021/04/08 00:36:36;;;;;;;9.88;2.42;;;;;;;6.16;58.21;101012.97;5014141;28;20293;-45
2021/04/08 00:39:03;;;;;;;16.80;2.15;;;;;;;6.20;57.62;101020.03;5012874;28;20242;-45
2021/04/08 00:41:30;;;;;;;7.80;1.50;;;;;;;5.97;58.50;101021.09;5014057;28;20219;-45
2021/04/08 00:43:58;;;;;;;15.70;2.25;;;;;;;6.14;57.70;101020.53;5013105;28;20470;-44
2021/04/08 00:46:24;;;;;;;7.78;2.20;;;;;;;6.19;57.41;101023.41;5014318;28;20218;-47
2021/04/08 00:48:51;;;;;;;17.77;2.50;;;;;;;6.28;56.93;101033.34;5014412;28;20238;-45
2021/04/08 00:51:18;;;;;;;21.42;3.15;;;;;;;6.26;56.89;101023.00;5017754;28;20485;-45
2021/04/08 00:53:46;;;;;;;15.32;2.70;;;;;;;6.29;56.34;101030.88;5016759;28;20246;-46
2021/04/08 00:56:13;;;;;;;15.37;2.40;;;;;;;6.33;56.13;101024.28;5018292;28;20203;-46
2021/04/08 00:58:40;;;;;;;20.07;4.07;;;;;;;6.14;55.82;101040.13;5017010;28;20491;-48
2021/04/08 01:01:07;;;;;;;23.95;2.90;;;;;;;6.44;55.09;101037.75;5017643;28;20568;-45
2021/04/08 01:03:34;;;;;;;15.82;2.70;;;;;;;6.18;55.31;101040.47;5016772;28;20240;-46
2021/04/08 01:06:00;;;;;;;10.98;2.60;;;;;;;5.99;55.65;101051.16;5018355;28;20207;-46
2021/04/08 01:08:27;;;;;;;16.75;2.50;;;;;;;6.38;54.76;101039.94;5016803;28;20333;-46
2021/04/08 01:10:54;;;;;;;17.00;2.13;;;;;;;6.27;54.39;101042.72;5017259;28;20209;-46
2021/04/08 01:16:51;;;;;;;12.90;2.77;;;;;;;6.36;53.62;101052.66;5015298;28;20206;-50
2021/04/08 01:19:57;;;;;;;10.90;1.90;;;;;;;6.38;53.42;101060.44;5016877;28;20463;-45
2021/04/08 01:22:37;;;;;;;32.20;5.10;;;;;;;6.42;53.72;101062.44;4969409;28;20459;-47
2021/04/08 01:25:13;;;;;;;17.35;3.33;;;;;;;6.32;53.87;101066.09;5016850;28;20238;-47
2021/04/08 01:27:55;;;;;;;15.20;2.63;;;;;;;6.34;54.17;101078.22;5018321;28;20214;-45
2021/04/08 01:30:43;;;;;;;9.20;1.53;;;;;;;6.08;54.72;101069.72;5015255;28;20293;-44
2021/04/08 01:33:16;;;;;;;14.43;2.20;;;;;;;6.30;54.27;101076.22;5016924;28;20447;-50
2021/04/08 01:35:45;;;;;;;17.90;3.97;;;;;;;6.18;55.14;101078.00;5018127;28;20231;-47
2021/04/08 01:38:14;;;;;;;12.57;2.03;;;;;;;6.39;53.79;101078.50;5016683;28;20217;-46
2021/04/08 01:40:41;;;;;;;14.20;2.42;;;;;;;6.14;54.37;101088.81;5017423;28;20234;-49
2021/04/08 01:43:08;;;;;;;11.25;1.65;;;;;;;6.12;54.37;101077.59;5017873;28;20217;-47
2021/04/08 01:45:35;;;;;;;14.73;2.17;;;;;;;6.08;54.30;101092.78;5016972;28;20662;-47
2021/04/08 01:48:06;;;;;;;14.37;1.70;;;;;;;6.16;54.66;101082.16;5017563;28;20962;-45
2021/04/08 01:50:33;;;;;;;11.75;1.85;;;;;;;6.05;54.80;101087.44;5016179;28;20497;-47
2021/04/08 01:53:01;;;;;;;11.20;1.63;;;;;;;6.00;55.11;101093.03;5017544;28;20227;-46
2021/04/08 01:55:29;;;;;;;10.73;2.30;;;;;;;5.92;55.93;101084.84;5016319;28;20257;-44
2021/04/08 01:57:56;;;;;;;14.82;2.42;;;;;;;5.85;56.16;101090.34;5017675;28;20205;-44
2021/04/08 02:00:24;;;;;;;9.77;1.95;;;;;;;6.03;55.92;101099.28;5015712;28;20262;-46
2021/04/08 02:02:54;;;;;;;10.73;2.10;;;;;;;6.26;55.54;101105.00;5017574;28;20309;-46
2021/04/08 02:05:22;;;;;;;13.68;2.40;;;;;;;6.03;56.28;101104.41;5016144;28;20252;-45
2021/04/08 02:07:49;;;;;;;8.18;1.40;;;;;;;6.07;56.14;101106.34;5017669;28;20206;-45
2021/04/08 02:10:16;;;;;;;7.57;1.52;;;;;;;5.86;56.88;101115.16;5015608;28;20242;-46
2021/04/08 02:12:46;;;;;;;12.70;1.90;;;;;;;5.97;56.71;101110.75;4997411;28;20531;-46
2021/04/08 02:15:17;;;;;;;15.13;3.15;;;;;;;6.02;56.92;101105.19;4996741;28;20260;-45
2021/04/08 02:17:46;;;;;;;13.57;2.25;;;;;;;6.07;56.83;101114.03;4997631;28;20207;-47
2021/04/08 02:20:14;;;;;;;17.83;1.73;;;;;;;5.99;56.98;101116.88;4996595;28;20326;-47
2021/04/08 02:22:43;;;;;;;16.58;1.75;;;;;;;5.77;57.20;101131.69;4997545;28;20233;-45
2021/04/08 02:25:12;;;;;;;10.98;1.60;;;;;;;5.90;56.69;101129.97;4996148;28;20247;-45
2021/04/08 02:27:40;;;;;;;14.68;2.40;;;;;;;5.58;57.25;101128.69;4997335;28;20625;-46
2021/04/08 02:30:08;;;;;;;18.85;2.13;;;;;;;5.99;56.42;101127.13;4996054;28;20243;-45
2021/04/08 02:32:37;;;;;;;18.33;2.63;;;;;;;5.98;56.53;101141.59;4997340;28;20645;-47
2021/04/08 02:35:06;;;;;;;5.03;0.90;;;;;;;5.80;56.77;101131.88;4995955;28;20620;-45
2021/04/08 02:37:33;;;;;;;12.77;1.85;;;;;;;5.54;57.63;101136.13;4997315;28;20204;-45
2021/04/08 02:40:00;;;;;;;10.60;1.95;;;;;;;5.47;58.65;101139.06;4995962;28;20235;-46
2021/04/08 02:42:27;;;;;;;19.67;2.05;;;;;;;5.65;58.77;101147.09;4997156;28;20314;-44
2021/04/08 02:44:53;;;;;;;12.25;1.67;;;;;;;5.39;59.81;101147.91;4995860;28;20246;-45
2021/04/08 02:47:20;;;;;;;12.15;2.20;;;;;;;5.66;59.63;101148.88;4997174;28;20536;-45
2021/04/08 02:49:47;;;;;;;18.50;2.90;;;;;;;5.79;59.23;101149.69;4996298;28;20562;-47
2021/04/08 02:52:16;;;;;;;14.45;1.85;;;;;;;5.70;59.92;101150.00;4996707;28;20265;-48
2021/04/08 02:54:47;;;;;;;17.33;2.00;;;;;;;5.89;59.16;101156.38;4995559;28;20555;-45
2021/04/08 02:57:25;;;;;;;15.35;2.38;;;;;;;6.16;58.62;101156.44;4997114;28;20203;-45
2021/04/08 02:59:54;;;;;;;13.38;1.70;;;;;;;6.19;58.42;101161.75;4995663;28;20231;-46
2021/04/08 03:02:24;;;;;;;12.57;2.13;;;;;;;6.01;58.77;101162.28;4996666;28;20227;-48
2021/04/08 03:04:58;;;;;;;19.88;3.28;;;;;;;6.21;58.59;101166.19;4995252;28;20247;-45
2021/04/08 03:07:28;;;;;;;14.65;1.98;;;;;;;5.78;59.27;101155.63;4996965;28;20207;-46
2021/04/08 03:09:55;;;;;;;18.13;2.30;;;;;;;5.94;58.56;101165.22;4995188;28;20242;-46
2021/04/08 03:12:23;;;;;;;13.13;2.13;;;;;;;5.73;58.52;101173.22;4995271;28;20259;-46
2021/04/08 03:14:52;;;;;;;10.88;2.00;;;;;;;5.99;57.56;101175.78;4995383;28;20240;-44
2021/04/08 03:17:20;;;;;;;16.80;1.95;;;;;;;5.56;58.39;101182.31;4996592;28;20207;-47
2021/04/08 03:19:49;;;;;;;17.60;2.30;;;;;;;5.87;57.54;101183.53;4995261;28;20286;-46
2021/04/08 03:22:18;;;;;;;15.93;2.15;;;;;;;6.23;56.70;101186.81;4996179;28;20228;-45
2021/04/08 03:24:46;;;;;;;16.67;2.38;;;;;;;5.92;57.04;101189.84;4995231;28;20545;-45
2021/04/08 03:27:15;;;;;;;8.40;1.67;;;;;;;6.12;56.15;101198.00;4996255;28;20207;-45
2021/04/08 03:29:42;;;;;;;11.73;2.35;;;;;;;6.28;56.39;101200.81;4994573;28;20262;-48
2021/04/08 03:32:09;;;;;;;12.73;3.13;;;;;;;6.42;55.34;101216.22;4995945;28;20227;-45
2021/04/08 03:34:37;;;;;;;12.93;2.05;;;;;;;6.47;55.21;101220.84;4994946;28;20719;-45
2021/04/08 03:37:04;;;;;;;12.15;2.20;;;;;;;6.54;55.55;101223.81;4996292;28;20586;-45
2021/04/08 03:39:31;;;;;;;18.80;1.70;;;;;;;6.26;55.78;101224.56;4995451;28;20322;-46
2021/04/08 03:41:58;;;;;;;10.45;2.55;;;;;;;6.34;56.04;101219.19;4995891;28;20227;-45
2021/04/08 03:44:25;;;;;;;9.80;2.05;;;;;;;6.14;56.04;101227.19;4994778;28;20243;-45
2021/04/08 03:46:55;;;;;;;9.68;2.38;;;;;;;6.10;56.38;101227.78;4995993;28;20606;-47
2021/04/08 03:49:22;;;;;;;8.00;1.50;;;;;;;6.16;56.20;101233.31;4994989;28;20613;-45
2021/04/08 03:51:49;;;;;;;10.55;1.77;;;;;;;6.18;55.72;101229.16;4995894;28;20223;-47
2021/04/08 03:54:16;;;;;;;13.35;2.28;;;;;;;6.42;55.76;101234.16;4994885;28;20278;-47
2021/04/08 03:56:43;;;;;;;11.52;2.55;;;;;;;6.42;55.11;101236.72;4996087;28;20210;-47
2021/04/08 03:59:10;;;;;;;10.20;1.83;;;;;;;6.51;55.02;101241.59;4994537;28;20536;-45
2021/04/08 04:01:38;;;;;;;7.78;2.00;;;;;;;6.34;55.51;101247.38;4995900;28;20470;-47
2021/04/08 04:04:06;;;;;;;11.57;1.40;;;;;;;6.51;55.29;101247.56;4994741;28;20281;-45
2021/04/08 04:06:35;;;;;;;11.38;1.63;;;;;;;6.33;55.33;101247.25;4996048;28;20517;-46
2021/04/08 04:09:02;;;;;;;9.32;1.70;;;;;;;6.13;55.97;101253.59;4994533;28;20247;-45
2021/04/08 04:11:29;;;;;;;7.35;1.40;;;;;;;6.30;55.51;101258.19;4995457;28;20571;-46
2021/04/08 04:13:57;;;;;;;13.38;1.63;;;;;;;6.30;55.64;101254.75;4994547;28;20231;-45
2021/04/08 04:16:23;;;;;;;8.50;1.92;;;;;;;6.52;55.56;101257.06;4996128;28;20205;-47
2021/04/08 04:18:50;;;;;;;13.48;1.70;;;;;;;6.38;55.67;101262.94;4994752;28;20334;-45
2021/04/08 04:21:18;;;;;;;10.10;1.50;;;;;;;6.37;56.10;101263.72;4995549;28;20318;-47
2021/04/08 04:23:44;;;;;;;10.05;1.85;;;;;;;6.22;56.65;101270.47;4997718;28;20250;-46
2021/04/08 04:26:12;;;;;;;14.20;1.73;;;;;;;6.17;56.88;101276.09;4999738;28;20685;-48
2021/04/08 04:28:39;;;;;;;10.73;2.15;;;;;;;6.20;56.91;101266.94;4998400;28;20231;-46
2021/04/08 04:31:06;;;;;;;9.35;2.17;;;;;;;6.01;57.60;101276.69;4999307;28;20229;-46
2021/04/08 04:33:32;;;;;;;11.60;2.30;;;;;;;6.22;57.26;101273.03;4998493;28;20234;-45
2021/04/08 04:35:59;;;;;;;5.95;1.65;;;;;;;6.12;57.78;101269.75;4999683;28;20203;-45
2021/04/08 04:38:27;;;;;;;11.48;1.83;;;;;;;6.13;57.37;101274.09;4998293;28;20235;-45
2021/04/08 04:40:53;;;;;;;10.73;2.78;;;;;;;5.98;58.13;101274.78;4998775;28;20199;-45
2021/04/08 04:43:20;;;;;;;14.88;2.85;;;;;;;5.94;57.95;101280.47;4998248;28;20624;-46
2021/04/08 04:45:47;;;;;;;15.27;2.10;;;;;;;5.80;58.06;101290.66;4999312;28;20318;-45
2021/04/08 04:48:13;;;;;;;8.65;2.17;;;;;;;5.96;57.47;101281.50;4998265;28;20200;-44
2021/04/08 04:50:40;;;;;;;20.58;2.20;;;;;;;5.98;57.25;101287.59;4998875;28;20632;-45
2021/04/08 04:53:06;;;;;;;11.20;1.75;;;;;;;5.98;56.66;101285.03;4999012;28;20616;-45
2021/04/08 04:55:34;;;;;;;11.68;3.25;;;;;;;5.93;56.59;101294.06;4997721;28;20243;-45
2021/04/08 04:58:00;;;;;;;7.18;2.13;;;;;;;6.02;56.07;101287.06;4999344;28;20294;-45
2021/04/08 05:00:27;;;;;;;5.40;1.23;;;;;;;5.99;55.98;101297.06;4997549;28;20231;-45
2021/04/08 05:02:53;;;;;;;7.15;1.67;;;;;;;6.01;55.40;101300.59;4999003;28;20230;-44
2021/04/08 05:05:20;;;;;;;16.83;1.75;;;;;;;5.81;56.12;101306.94;4997679;28;20266;-45
2021/04/08 05:07:47;;;;;;;15.45;1.65;;;;;;;5.81;55.47;101312.06;4998908;28;20668;-45
2021/04/08 05:10:13;;;;;;;7.88;1.90;;;;;;;6.14;55.37;101322.88;4997088;28;20242;-46
2021/04/08 05:12:40;;;;;;;9.77;1.63;;;;;;;5.69;55.56;101317.19;4998132;28;20225;-45
2021/04/08 05:15:08;;;;;;;8.75;1.30;;;;;;;6.02;55.52;101317.81;4997529;28;20564;-47
2021/04/08 05:17:35;;;;;;;5.07;0.80;;;;;;;6.02;55.30;101322.94;4998865;28;20218;-45
2021/04/08 05:20:01;;;;;;;10.20;1.33;;;;;;;6.12;55.13;101319.34;4996958;28;20238;-48
2021/04/08 05:22:28;;;;;;;11.85;2.15;;;;;;;6.20;55.48;101325.88;4998271;28;20224;-47
2021/04/08 05:24:54;;;;;;;8.52;2.20;;;;;;;6.23;54.95;101322.63;4997306;28;20246;-47
2021/04/08 05:27:21;;;;;;;9.13;2.27;;;;;;;6.43;54.77;101331.69;4998650;28;20294;-46
2021/04/08 05:29:49;;;;;;;8.87;1.50;;;;;;;6.41;55.42;101332.38;4997229;28;20490;-47
2021/04/08 05:32:15;;;;;;;9.45;1.35;;;;;;;6.32;55.54;101328.38;4998195;28;20763;-46
2021/04/08 05:34:42;;;;;;;19.87;1.47;;;;;;;6.39;55.85;101328.78;4997120;28;20239;-46
2021/04/08 05:37:08;;;;;;;12.32;1.98;;;;;;;6.50;56.88;101330.41;4998194;28;20755;-45
2021/04/08 05:39:35;;;;;;;5.87;1.20;;;;;;;6.44;57.14;101335.13;4996703;28;20240;-46
2021/04/08 05:42:02;;;;;;;12.40;2.10;;;;;;;6.45;57.25;101339.47;4998086;28;20479;-45
2021/04/08 05:44:28;;;;;;;14.02;2.40;;;;;;;6.26;57.58;101343.31;4996976;28;20569;-46
2021/04/08 05:46:56;;;;;;;10.98;1.80;;;;;;;6.07;58.12;101347.19;4998211;28;20207;-45
2021/04/08 05:49:22;;;;;;;11.82;2.20;;;;;;;6.11;58.30;101350.88;4996764;28;20238;-44
2021/04/08 05:51:49;;;;;;;12.55;2.28;;;;;;;6.19;57.71;101352.28;4997726;28;20238;-45
2021/04/08 05:54:15;;;;;;;18.43;1.80;;;;;;;6.37;57.49;101363.69;4996957;28;20235;-45
2021/04/08 05:56:42;;;;;;;9.68;1.40;;;;;;;6.40;57.37;101371.59;4998188;28;20543;-45
2021/04/08 05:59:09;;;;;;;12.15;1.90;;;;;;;6.16;57.58;101362.31;4996781;28;20247;-45
2021/04/08 06:01:35;;;;;;;7.15;1.20;;;;;;;6.18;57.79;101360.75;4997567;28;20220;-48
2021/04/08 06:04:03;;;;;;;13.95;2.33;;;;;;;5.99;58.42;101378.16;4996574;28;20235;-44
2021/04/08 06:06:30;;;;;;;8.43;2.10;;;;;;;5.89;58.61;101381.75;4997933;28;20298;-46
2021/04/08 06:08:56;;;;;;;23.50;2.25;;;;;;;5.43;59.21;101387.00;4996327;28;20242;-45
2021/04/08 06:11:23;;;;;;;7.32;1.50;;;;;;;5.67;59.15;101386.22;4997507;28;20477;-47
2021/04/08 06:13:50;;;;;;;8.68;1.70;;;;;;;5.68;58.88;101392.22;4996357;28;20239;-45
2021/04/08 06:16:17;;;;;;;8.00;2.03;;;;;;;5.85;58.58;101401.09;4997733;28;20203;-46
2021/04/08 06:18:45;;;;;;;2.22;0.82;;;;;;;5.27;59.71;101394.47;4996263;28;20242;-45
2021/04/08 06:21:13;;;;;;;7.43;0.98;;;;;;;5.44;59.69;101396.47;4997364;28;20229;-45
2021/04/08 06:23:39;;;;;;;10.48;1.65;;;;;;;5.79;58.74;101399.00;4996508;28;20539;-46
2021/04/08 06:26:07;;;;;;;16.75;2.38;;;;;;;5.93;58.17;101399.09;4997538;28;20204;-47
2021/04/08 06:28:33;;;;;;;6.80;1.58;;;;;;;6.44;56.94;101394.09;4996098;28;20235;-45
2021/04/08 06:31:00;;;;;;;12.45;1.88;;;;;;;6.08;58.02;101396.75;4996891;28;20235;-45
2021/04/08 06:33:27;;;;;;;20.63;2.17;;;;;;;6.37;57.28;101391.88;4996306;28;20515;-45
2021/04/08 06:35:53;;;;;;;10.98;2.17;;;;;;;5.98;57.84;101402.88;4997414;28;20207;-45
2021/04/08 06:38:21;;;;;;;7.45;1.63;;;;;;;6.19;57.42;101418.00;4996342;28;20203;-49
2021/04/08 06:40:47;;;;;;;17.25;2.40;;;;;;;6.59;56.36;101413.09;4996726;28;20321;-46
2021/04/08 06:43:14;;;;;;;11.20;2.00;;;;;;;6.87;55.80;101420.09;4995863;28;20294;-46
2021/04/08 06:45:46;;;;;;;6.82;1.90;;;;;;;6.71;56.09;101424.97;4996191;28;20232;-47
2021/04/08 06:48:16;;;;;;;14.25;2.85;;;;;;;6.86;56.02;101425.09;4996023;28;20212;-45
2021/04/08 06:50:44;;;;;;;9.97;2.17;;;;;;;7.12;55.37;101423.41;4996351;28;20231;-45
2021/04/08 06:53:10;;;;;;;12.25;2.05;;;;;;;6.88;56.01;101421.00;4995461;28;20454;-46
2021/04/08 06:55:38;;;;;;;9.77;2.33;;;;;;;7.07;56.55;101419.66;4996583;28;20235;-45
2021/04/08 06:58:06;;;;;;;19.10;2.50;;;;;;;7.16;56.01;101418.59;4996658;28;20436;-47
2021/04/08 07:00:33;;;;;;;8.03;1.57;;;;;;;6.82;56.86;101424.00;4994987;28;20457;-46
2021/04/08 07:03:02;;;;;;;12.00;1.60;;;;;;;6.97;56.66;101425.84;4996551;28;20486;-47
2021/04/08 07:05:28;;;;;;;19.00;2.30;;;;;;;6.83;56.59;101433.47;4995734;28;20540;-49
2021/04/08 07:07:55;;;;;;;4.70;1.13;;;;;;;6.60;56.60;101440.53;4996415;28;20467;-47
2021/04/08 07:10:21;;;;;;;13.90;2.60;;;;;;;6.66;57.13;101441.72;4994555;28;21048;-45
2021/04/08 07:12:51;;;;;;;11.43;2.77;;;;;;;7.08;56.01;101442.84;4995870;28;20488;-45
2021/04/08 07:15:18;;;;;;;18.58;1.98;;;;;;;6.56;56.79;101443.63;4994710;28;20744;-46
2021/04/08 07:17:45;;;;;;;9.53;3.60;;;;;;;6.99;56.69;101442.22;4996390;28;20214;-48
2021/04/08 07:20:12;;;;;;;10.37;1.73;;;;;;;7.34;55.55;101448.81;4994735;28;20482;-46
2021/04/08 07:22:40;;;;;;;5.73;1.10;;;;;;;7.20;55.47;101450.47;4996189;28;20563;-45
2021/04/08 07:25:15;;;;;;;9.67;2.10;;;;;;;7.65;54.90;101448.25;4994506;28;20581;-45
2021/04/08 07:27:42;;;;;;;15.40;2.80;;;;;;;8.23;54.04;101444.16;4996055;28;20489;-46
2021/04/08 07:30:11;;;;;;;5.67;1.73;;;;;;;7.90;54.34;101454.09;4994581;28;20503;-46
2021/04/08 07:32:40;;;;;;;4.93;1.03;;;;;;;7.30;55.81;101446.84;4996095;28;20770;-46
2021/04/08 07:35:15;;;;;;;14.20;2.10;;;;;;;7.60;55.11;101448.75;4994702;28;20502;-45
2021/04/08 07:37:43;;;;;;;10.93;2.50;;;;;;;7.36;56.31;101454.97;4996272;28;20472;-45
2021/04/08 07:40:15;;;;;;;8.77;1.57;;;;;;;7.21;57.58;101464.19;4993981;28;20461;-45
2021/04/08 07:42:42;;;;;;;8.43;2.37;;;;;;;6.96;58.16;101457.41;4994586;28;20562;-46
2021/04/08 07:45:10;;;;;;;10.60;2.13;;;;;;;7.20;58.10;101460.75;4992681;28;20490;-47
2021/04/08 07:47:40;;;;;;;13.63;2.80;;;;;;;7.39;57.63;101470.53;4995688;28;20440;-45
2021/04/08 07:50:12;;;;;;;5.70;1.37;;;;;;;6.74;57.75;101472.25;4994197;28;20510;-46
2021/04/08 07:52:40;;;;;;;50.83;18.90;;;;;;;7.24;57.85;101474.69;4995795;28;20509;-47
2021/04/08 07:55:16;;;;;;;4.93;1.70;;;;;;;7.18;57.51;101481.97;4994495;28;21022;-46
2021/04/08 07:57:59;;;;;;;14.43;2.87;;;;;;;6.91;57.55;101484.44;4995867;28;20546;-46
2021/04/08 08:00:29;;;;;;;19.83;5.60;;;;;;;7.22;56.61;101486.53;4994378;28;21045;-48
2021/04/08 08:02:57;;;;;;;6.87;2.50;;;;;;;7.33;55.65;101475.28;4995787;28;21277;-45
2021/04/08 08:05:27;;;;;;;9.37;1.80;;;;;;;7.43;55.72;101477.69;4994997;28;20559;-45
2021/04/08 08:07:54;;;;;;;2.70;0.67;;;;;;;7.51;57.15;101485.00;4996012;28;20824;-44
2021/04/08 08:10:24;;;;;;;10.63;1.80;;;;;;;7.51;56.17;101483.31;4994026;28;20491;-44
2021/04/08 08:12:51;;;;;;;2.53;1.07;;;;;;;7.65;56.15;101485.91;4995313;28;20461;-44
2021/04/08 08:15:21;;;;;;;6.20;1.67;;;;;;;7.46;56.09;101492.41;4994405;28;20536;-45
2021/04/08 08:17:49;;;;;;;7.90;2.10;;;;;;;7.37;55.94;101502.03;4995717;28;20474;-48
2021/04/08 08:20:18;;;;;;;8.23;1.63;;;;;;;7.41;57.01;101504.03;4994097;28;20599;-45
2021/04/08 08:22:46;;;;;;;5.10;1.43;;;;;;;7.19;56.73;101502.59;4995678;28;20478;-45
2021/04/08 08:25:14;;;;;;;23.37;2.90;;;;;;;7.49;55.64;101510.56;4994349;28;20809;-45
2021/04/08 08:27:43;;;;;;;12.70;3.00;;;;;;;7.75;56.53;101502.81;4995646;28;20425;-45
2021/04/08 08:30:13;;;;;;;4.97;1.17;;;;;;;7.58;56.24;101515.41;4983154;28;20526;-46
2021/04/08 08:32:39;;;;;;;10.73;2.80;;;;;;;7.83;55.07;101510.22;4975303;28;20924;-44
2021/04/08 08:35:08;;;;;;;3.10;0.80;;;;;;;7.66;55.81;101506.56;4974398;28;20798;-49
2021/04/08 08:37:35;;;;;;;3.10;0.70;;;;;;;7.24;56.34;101515.75;4975946;28;20446;-46
2021/04/08 08:40:19;;;;;;;2.13;0.80;;;;;;;7.50;57.49;101508.91;4974258;28;20482;-44
2021/04/08 08:42:46;;;;;;;6.23;1.50;;;;;;;7.18;58.36;101517.91;4975732;28;20462;-46
2021/04/08 08:45:14;;;;;;;3.93;0.80;;;;;;;7.42;57.69;101511.84;4974253;28;20827;-46
2021/04/08 08:47:41;;;;;;;5.90;1.10;;;;;;;7.31;58.54;101512.81;4975757;28;20499;-45
2021/04/08 08:50:11;;;;;;;20.50;5.80;;;;;;;7.73;57.65;101507.84;4973903;28;20558;-46
2021/04/08 08:52:39;;;;;;;6.13;1.33;;;;;;;8.09;57.58;101502.41;4975749;28;20472;-45
2021/04/08 08:55:06;;;;;;;5.07;1.60;;;;;;;7.74;58.46;101504.47;4973892;28;20483;-44
2021/04/08 08:57:33;;;;;;;8.20;2.47;;;;;;;8.06;57.31;101512.50;4976080;28;20466;-44
2021/04/08 09:00:00;;;;;;;16.83;2.77;;;;;;;8.45;56.66;101505.53;4974452;28;20578;-45
2021/04/08 09:02:26;;;;;;;6.83;1.70;;;;;;;8.15;57.36;101496.78;4975601;28;20489;-45
2021/04/08 09:04:53;;;;;;;5.30;1.63;;;;;;;8.02;56.72;101503.72;4974581;28;20915;-49
2021/04/08 09:07:21;;;;;;;6.57;1.20;;;;;;;7.62;57.19;101522.56;4975926;28;20456;-46
2021/04/08 09:09:52;;;;;;;3.20;1.27;;;;;;;7.67;56.93;101510.91;4976016;28;20515;-45
2021/04/08 09:12:20;;;;;;;6.00;1.33;;;;;;;7.76;57.13;101502.00;4978867;28;20485;-44
2021/04/08 09:14:48;;;;;;;8.47;1.70;;;;;;;7.95;55.40;101510.13;4977730;28;20491;-46
2021/04/08 09:17:37;;;;;;;14.60;4.73;;;;;;;7.87;56.55;101524.16;4979206;28;20968;-45
2021/04/08 09:20:05;;;;;;;12.57;1.80;;;;;;;8.39;55.29;101520.56;4977862;28;20475;-44
2021/04/08 09:22:33;;;;;;;7.80;1.57;;;;;;;8.61;54.07;101521.97;4978783;28;20788;-45
2021/04/08 09:25:00;;;;;;;9.73;2.27;;;;;;;8.42;53.24;101518.19;4996665;28;20800;-44
2021/04/08 09:27:27;;;;;;;14.30;2.27;;;;;;;8.09;54.26;101530.66;4998634;28;20462;-48
2021/04/08 09:29:57;;;;;;;14.50;3.00;;;;;;;8.40;54.43;101518.91;4997078;28;20472;-45
2021/04/08 09:32:32;;;;;;;5.50;1.00;;;;;;;7.92;53.20;101519.31;4997739;28;20485;-44
2021/04/08 09:35:17;;;;;;;11.03;1.10;;;;;;;8.01;54.56;101514.78;4997459;28;20497;-45
2021/04/08 09:38:24;;;;;;;11.50;1.83;;;;;;;8.26;52.80;101516.34;4998458;28;20909;-45
2021/04/08 09:41:00;;;;;;;7.27;1.13;;;;;;;8.27;53.43;101517.22;4992281;28;20466;-45
2021/04/08 09:43:28;;;;;;;4.40;0.50;;;;;;;7.82;54.24;101517.81;4996996;28;20528;-46
2021/04/08 09:46:03;;;;;;;5.70;1.07;;;;;;;8.00;53.22;101512.09;4998113;28;20474;-44
2021/04/08 09:48:57;;;;;;;2.50;0.87;;;;;;;8.38;52.60;101526.50;4997138;28;20573;-45
2021/04/08 09:51:32;;;;;;;4.43;1.30;;;;;;;8.09;52.43;101518.72;4984921;28;20541;-45
2021/04/08 09:54:01;;;;;;;4.50;1.00;;;;;;;7.80;55.62;101524.56;4996768;28;20915;-46
2021/04/08 09:56:48;;;;;;;7.50;1.17;;;;;;;7.70;56.60;101535.91;4998224;28;20848;-44
2021/04/08 09:59:16;;;;;;;5.67;1.30;;;;;;;7.54;58.41;101539.13;4996703;28;20569;-45
2021/04/08 10:01:43;;;;;;;3.30;1.00;;;;;;;7.77;59.01;101539.75;4997665;28;20569;-45
2021/04/08 10:04:12;;;;;;;5.23;1.70;;;;;;;7.81;58.22;101552.88;4996532;28;20486;-45
2021/04/08 10:06:39;;;;;;;6.23;1.60;;;;;;;7.65;58.37;101550.13;4998022;28;20500;-45
2021/04/08 10:09:06;;;;;;;3.80;1.50;;;;;;;6.95;58.87;101553.13;4996458;28;20460;-45
2021/04/08 10:11:33;;;;;;;7.00;0.90;;;;;;;7.36;57.53;101561.88;4997282;28;20491;-46
2021/04/08 10:14:00;;;;;;;2.90;1.07;;;;;;;7.22;58.86;101563.53;4996232;28;20488;-45
2021/04/08 10:16:27;;;;;;;2.70;0.60;;;;;;;7.22;56.52;101548.13;4997697;28;20460;-45
2021/04/08 10:18:59;;;;;;;4.43;0.60;;;;;;;7.05;55.54;101555.56;4996372;28;21001;-45
2021/04/08 10:21:26;;;;;;;5.87;1.30;;;;;;;7.87;54.30;101547.28;4997298;28;20479;-45
2021/04/08 10:23:54;;;;;;;4.13;1.10;;;;;;;7.87;53.28;101541.25;4996418;28;20456;-45
2021/04/08 10:26:23;;;;;;;5.57;1.23;;;;;;;8.30;53.61;101548.28;4997415;28;20862;-45
2021/04/08 10:28:51;;;;;;;4.33;0.97;;;;;;;8.24;51.88;101544.53;4995826;28;20566;-46
2021/04/08 10:31:23;;;;;;;3.60;0.93;;;;;;;8.35;52.15;101547.78;4997040;28;20767;-44
2021/04/08 10:33:52;;;;;;;6.57;1.20;;;;;;;8.65;51.50;101547.06;4996126;28;20490;-45
2021/04/08 10:36:26;;;;;;;2.90;1.67;;;;;;;8.22;50.19;101551.22;4997404;28;20467;-45
2021/04/08 10:39:05;;;;;;;3.30;1.13;;;;;;;8.21;49.49;101549.44;4995816;28;20560;-44
2021/04/08 10:41:31;;;;;;;2.93;0.90;;;;;;;8.49;49.52;101546.09;4996646;28;20478;-45
2021/04/08 10:44:19;;;;;;;5.27;1.40;;;;;;;8.71;50.30;101549.13;4995969;28;20487;-45
2021/04/08 10:46:47;;;;;;;6.47;0.90;;;;;;;9.11;49.37;101538.69;4997339;28;20465;-45
2021/04/08 10:49:19;;;;;;;5.20;1.30;;;;;;;9.23;48.83;101543.69;4995757;28;20512;-45
2021/04/08 10:51:45;;;;;;;7.57;1.30;;;;;;;9.14;49.44;101541.44;4996626;28;20493;-45
2021/04/08 10:54:12;;;;;;;9.57;1.53;;;;;;;8.75;49.61;101539.13;4995716;28;20490;-45
2021/04/08 10:56:39;;;;;;;6.30;1.03;;;;;;;8.60;51.03;101538.16;4996924;28;20888;-45
2021/04/08 10:59:19;;;;;;;13.83;0.60;;;;;;;8.68;50.87;101539.53;4995397;28;20486;-45
2021/04/08 11:01:47;;;;;;;2.93;1.00;;;;;;;8.57;50.98;101544.00;4996611;28;20510;-45
2021/04/08 11:04:13;;;;;;;7.83;1.63;;;;;;;8.14;50.99;101539.56;4995501;28;20465;-45
2021/04/08 11:06:40;;;;;;;4.93;0.67;;;;;;;8.28;52.07;101548.19;4996996;28;20437;-45
2021/04/08 11:09:07;;;;;;;1.90;0.70;;;;;;;8.42;50.22;101548.16;4995628;28;20912;-45
2021/04/08 11:11:34;;;;;;;3.30;0.93;;;;;;;8.51;48.67;101547.09;4996029;28;20943;-45
2021/04/08 11:14:01;;;;;;;12.43;0.93;;;;;;;9.23;47.29;101543.69;4995293;28;20487;-45
2021/04/08 11:16:29;;;;;;;5.33;1.13;;;;;;;9.49;46.00;101543.47;4996277;28;20939;-46
2021/04/08 11:18:59;;;;;;;4.27;1.00;;;;;;;10.15;46.68;101536.03;4995233;28;20475;-44
2021/04/08 11:21:26;;;;;;;3.13;0.50;;;;;;;8.95;46.17;101544.59;4996367;28;20735;-45
2021/04/08 11:23:54;;;;;;;3.37;0.90;;;;;;;9.99;45.50;101539.44;4994700;28;20457;-45
2021/04/08 11:26:22;;;;;;;2.90;1.07;;;;;;;9.65;46.45;101542.66;4996490;28;20455;-46
2021/04/08 11:28:54;;;;;;;5.07;0.90;;;;;;;9.15;46.72;101544.91;4994956;28;20917;-44
2021/04/08 11:31:22;;;;;;;2.00;0.57;;;;;;;9.04;47.08;101546.84;4995269;28;20490;-45
2021/04/08 11:33:57;;;;;;;1.90;0.50;;;;;;;8.98;46.88;101542.19;4994681;28;20569;-45
2021/04/08 11:36:31;;;;;;;4.20;1.00;;;;;;;8.77;47.84;101547.81;4996198;28;20910;-45
2021/04/08 11:39:09;;;;;;;1.90;0.57;;;;;;;8.73;46.13;101550.13;4994851;28;20492;-45
2021/04/08 11:41:35;;;;;;;2.00;0.60;;;;;;;8.56;46.38;101551.66;4995869;28;20474;-47